PWSweather.com
Personal Weather Stations
Station Observations
SPARKSRC
St. Petersburg, FL 33716

St. Petersburg, FL 33716

Lat: 27.876101, Lon: -82.657194

Elevation: 13

Station Type: Zephyr PWS-1000TD

High Low Average
Temperature 100.9°F38.3°C 80.2°F26.8°C 87.4°F30.8°C
Dew Point 83.1°F28.4°C 73.6°F23.1°C 77.6°F25.3°C
Winds 14.5 mph 23.3 kmh 1.6 mph 2.6 kmh 7.0 mph NE11.3 kmh NE
Wind Gusts 22.8 mph36.7 kmh 5.4 mph8.7 kmh 13.0 mph20.9 kmh
Humidity 88% 55% 73%
Pressure 29.91 in1012.9 mb 29.81 in1009.5 mb -
Precipitation 0.14 in3.6 mm - -
Hour Temp Dew Point Humidity Winds Wind Gusts Pressure Precip Precip Rate Daily Precip Total
12:00 AM 83.1°F28.4°C 75.6°F24.2°C 78% 7.6 mph E12.2 kmh E 13.6 mph21.9 kmh 29.88 in1011.9 mb 0.00 in0.0 mm 0.00 in0.0 mm 0.00 in0.0 mm
12:05 AM 82.9°F28.3°C 75.4°F24.1°C 78% 6.0 mph E9.7 kmh E 13.6 mph21.9 kmh 29.88 in1011.9 mb 0.00 in0.0 mm 0.00 in0.0 mm 0.00 in0.0 mm
12:10 AM 82.9°F28.3°C 75.4°F24.1°C 78% 7.6 mph E12.2 kmh E 11.4 mph18.3 kmh 29.89 in1012.2 mb 0.00 in0.0 mm 0.00 in0.0 mm 0.00 in0.0 mm
12:15 AM 82.9°F28.3°C 75.4°F24.1°C 78% 3.8 mph E6.1 kmh E 11.4 mph18.3 kmh 29.89 in1012.2 mb 0.00 in0.0 mm 0.00 in0.0 mm 0.00 in0.0 mm
12:20 AM 82.8°F28.2°C 75.3°F24.1°C 78% 7.6 mph ENE12.2 kmh ENE 11.4 mph18.3 kmh 29.89 in1012.2 mb 0.00 in0.0 mm 0.00 in0.0 mm 0.00 in0.0 mm
12:25 AM 82.8°F28.2°C 75.6°F24.2°C 79% 4.5 mph ENE7.2 kmh ENE 11.4 mph18.3 kmh 29.89 in1012.2 mb 0.00 in0.0 mm 0.00 in0.0 mm 0.00 in0.0 mm
12:30 AM 82.8°F28.2°C 75.6°F24.2°C 79% 6.0 mph ENE9.7 kmh ENE 9.8 mph15.8 kmh 29.89 in1012.2 mb 0.00 in0.0 mm 0.00 in0.0 mm 0.00 in0.0 mm
12:35 AM 82.6°F28.1°C 75.5°F24.2°C 79% 7.6 mph ENE12.2 kmh ENE 10.7 mph17.2 kmh 29.89 in1012.2 mb 0.00 in0.0 mm 0.00 in0.0 mm 0.00 in0.0 mm
12:40 AM 82.6°F28.1°C 75.5°F24.2°C 79% 9.2 mph ENE14.8 kmh ENE 11.4 mph18.3 kmh 29.89 in1012.2 mb 0.00 in0.0 mm 0.00 in0.0 mm 0.00 in0.0 mm
12:45 AM 82.6°F28.1°C 75.5°F24.2°C 79% 6.0 mph E9.7 kmh E 11.4 mph18.3 kmh 29.89 in1012.2 mb 0.00 in0.0 mm 0.00 in0.0 mm 0.00 in0.0 mm
12:50 AM 82.6°F28.1°C 75.5°F24.2°C 79% 6.9 mph ENE11.1 kmh ENE 10.7 mph17.2 kmh 29.89 in1012.2 mb 0.00 in0.0 mm 0.00 in0.0 mm 0.00 in0.0 mm
12:55 AM 82.4°F28.0°C 75.3°F24.1°C 79% 6.9 mph ENE11.1 kmh ENE 13.0 mph20.9 kmh 29.90 in1012.5 mb 0.00 in0.0 mm 0.00 in0.0 mm 0.00 in0.0 mm
01:00 AM 82.4°F28.0°C 75.3°F24.1°C 79% 6.0 mph E9.7 kmh E 13.0 mph20.9 kmh 29.91 in1012.9 mb 0.00 in0.0 mm 0.00 in0.0 mm 0.00 in0.0 mm
01:05 AM 82.4°F28.0°C 75.7°F24.3°C 80% 7.6 mph E12.2 kmh E 11.4 mph18.3 kmh 29.90 in1012.5 mb 0.00 in0.0 mm 0.00 in0.0 mm 0.00 in0.0 mm
01:10 AM 82.2°F27.9°C 75.5°F24.2°C 80% 7.6 mph E12.2 kmh E 11.4 mph18.3 kmh 29.90 in1012.5 mb 0.00 in0.0 mm 0.00 in0.0 mm 0.00 in0.0 mm
01:15 AM 82.2°F27.9°C 75.5°F24.2°C 80% 6.0 mph E9.7 kmh E 9.8 mph15.8 kmh 29.90 in1012.5 mb 0.00 in0.0 mm 0.00 in0.0 mm 0.00 in0.0 mm
01:20 AM 82.0°F27.8°C 75.3°F24.1°C 80% 6.9 mph E11.1 kmh E 9.8 mph15.8 kmh 29.90 in1012.5 mb 0.00 in0.0 mm 0.00 in0.0 mm 0.00 in0.0 mm
01:25 AM 82.0°F27.8°C 75.3°F24.1°C 80% 4.5 mph E7.2 kmh E 9.8 mph15.8 kmh 29.90 in1012.5 mb 0.00 in0.0 mm 0.00 in0.0 mm 0.00 in0.0 mm
01:30 AM 82.0°F27.8°C 75.3°F24.1°C 80% 5.4 mph E8.7 kmh E 9.8 mph15.8 kmh 29.90 in1012.5 mb 0.00 in0.0 mm 0.00 in0.0 mm 0.00 in0.0 mm
01:35 AM 81.9°F27.7°C 75.1°F23.9°C 80% 4.5 mph E7.2 kmh E 7.6 mph12.2 kmh 29.90 in1012.5 mb 0.00 in0.0 mm 0.00 in0.0 mm 0.00 in0.0 mm
01:40 AM 81.9°F27.7°C 75.1°F23.9°C 80% 6.0 mph E9.7 kmh E 10.7 mph17.2 kmh 29.90 in1012.5 mb 0.00 in0.0 mm 0.00 in0.0 mm 0.00 in0.0 mm
01:45 AM 81.9°F27.7°C 75.1°F23.9°C 80% 4.5 mph E7.2 kmh E 10.7 mph17.2 kmh 29.90 in1012.5 mb 0.00 in0.0 mm 0.00 in0.0 mm 0.00 in0.0 mm
01:50 AM 81.9°F27.7°C 75.5°F24.2°C 81% 5.4 mph ENE8.7 kmh ENE 10.7 mph17.2 kmh 29.90 in1012.5 mb 0.00 in0.0 mm 0.00 in0.0 mm 0.00 in0.0 mm
01:55 AM 81.9°F27.7°C 75.5°F24.2°C 81% 3.8 mph NE6.1 kmh NE 9.8 mph15.8 kmh 29.90 in1012.5 mb 0.00 in0.0 mm 0.00 in0.0 mm 0.00 in0.0 mm
02:00 AM 81.9°F27.7°C 75.5°F24.2°C 81% 3.8 mph NE6.1 kmh NE 9.8 mph15.8 kmh 29.91 in1012.9 mb 0.00 in0.0 mm 0.00 in0.0 mm 0.00 in0.0 mm
02:05 AM 81.7°F27.6°C 75.3°F24.1°C 81% 3.8 mph NE6.1 kmh NE 8.3 mph13.4 kmh 29.90 in1012.5 mb 0.00 in0.0 mm 0.00 in0.0 mm 0.00 in0.0 mm
02:10 AM 81.7°F27.6°C 75.3°F24.1°C 81% 3.8 mph NE6.1 kmh NE 8.3 mph13.4 kmh 29.91 in1012.9 mb 0.00 in0.0 mm 0.00 in0.0 mm 0.00 in0.0 mm
02:15 AM 81.5°F27.5°C 75.2°F24.0°C 81% 5.4 mph ENE8.7 kmh ENE 8.3 mph13.4 kmh 29.90 in1012.5 mb 0.00 in0.0 mm 0.00 in0.0 mm 0.00 in0.0 mm
02:20 AM 81.7°F27.6°C 75.3°F24.1°C 81% 4.5 mph ENE7.2 kmh ENE 8.3 mph13.4 kmh 29.91 in1012.9 mb 0.00 in0.0 mm 0.00 in0.0 mm 0.00 in0.0 mm
02:25 AM 81.3°F27.4°C 75.0°F23.9°C 81% 4.5 mph E7.2 kmh E 8.3 mph13.4 kmh 29.90 in1012.5 mb 0.00 in0.0 mm 0.00 in0.0 mm 0.00 in0.0 mm
02:30 AM 81.3°F27.4°C 75.0°F23.9°C 81% 3.8 mph E6.1 kmh E 7.6 mph12.2 kmh 29.90 in1012.5 mb 0.00 in0.0 mm 0.00 in0.0 mm 0.00 in0.0 mm
02:35 AM 81.3°F27.4°C 75.0°F23.9°C 81% 5.4 mph E8.7 kmh E 9.2 mph14.8 kmh 29.90 in1012.5 mb 0.00 in0.0 mm 0.00 in0.0 mm 0.00 in0.0 mm
02:40 AM 81.3°F27.4°C 75.0°F23.9°C 81% 5.4 mph E8.7 kmh E 9.2 mph14.8 kmh 29.90 in1012.5 mb 0.00 in0.0 mm 0.00 in0.0 mm 0.00 in0.0 mm
02:45 AM 81.3°F27.4°C 75.0°F23.9°C 81% 5.4 mph E8.7 kmh E 9.2 mph14.8 kmh 29.90 in1012.5 mb 0.00 in0.0 mm 0.00 in0.0 mm 0.00 in0.0 mm
02:50 AM 81.1°F27.3°C 74.8°F23.8°C 81% 4.5 mph E7.2 kmh E 7.6 mph12.2 kmh 29.89 in1012.2 mb 0.00 in0.0 mm 0.00 in0.0 mm 0.00 in0.0 mm
02:55 AM 81.1°F27.3°C 74.8°F23.8°C 81% 3.8 mph E6.1 kmh E 7.6 mph12.2 kmh 29.89 in1012.2 mb 0.00 in0.0 mm 0.00 in0.0 mm 0.00 in0.0 mm
03:00 AM 81.0°F27.2°C 75.0°F23.9°C 82% 3.1 mph E5.0 kmh E 7.6 mph12.2 kmh 29.90 in1012.5 mb 0.00 in0.0 mm 0.00 in0.0 mm 0.00 in0.0 mm
03:05 AM 81.1°F27.3°C 75.2°F24.0°C 82% 5.4 mph E8.7 kmh E 8.3 mph13.4 kmh 29.89 in1012.2 mb 0.00 in0.0 mm 0.00 in0.0 mm 0.00 in0.0 mm
03:10 AM 81.0°F27.2°C 75.0°F23.9°C 82% 3.8 mph E6.1 kmh E 8.3 mph13.4 kmh 29.89 in1012.2 mb 0.00 in0.0 mm 0.00 in0.0 mm 0.00 in0.0 mm
03:15 AM 81.0°F27.2°C 75.0°F23.9°C 82% 3.8 mph ENE6.1 kmh ENE 7.6 mph12.2 kmh 29.89 in1012.2 mb 0.00 in0.0 mm 0.00 in0.0 mm 0.00 in0.0 mm
03:20 AM 81.0°F27.2°C 75.0°F23.9°C 82% 3.8 mph ENE6.1 kmh ENE 6.0 mph9.7 kmh 29.89 in1012.2 mb 0.00 in0.0 mm 0.00 in0.0 mm 0.00 in0.0 mm
03:25 AM 81.0°F27.2°C 75.0°F23.9°C 82% 3.1 mph ENE5.0 kmh ENE 6.0 mph9.7 kmh 29.89 in1012.2 mb 0.00 in0.0 mm 0.00 in0.0 mm 0.00 in0.0 mm
03:30 AM 81.0°F27.2°C 75.0°F23.9°C 82% 3.8 mph NE6.1 kmh NE 6.0 mph9.7 kmh 29.89 in1012.2 mb 0.00 in0.0 mm 0.00 in0.0 mm 0.00 in0.0 mm
03:35 AM 80.8°F27.1°C 75.2°F24.0°C 83% 3.1 mph NE5.0 kmh NE 6.0 mph9.7 kmh 29.88 in1011.9 mb 0.00 in0.0 mm 0.00 in0.0 mm 0.00 in0.0 mm
03:40 AM 80.8°F27.1°C 75.2°F24.0°C 83% 3.1 mph NE5.0 kmh NE 6.0 mph9.7 kmh 29.89 in1012.2 mb 0.00 in0.0 mm 0.00 in0.0 mm 0.00 in0.0 mm
03:45 AM 80.8°F27.1°C 75.2°F24.0°C 83% 3.1 mph NE5.0 kmh NE 6.0 mph9.7 kmh 29.88 in1011.9 mb 0.00 in0.0 mm 0.00 in0.0 mm 0.00 in0.0 mm
03:50 AM 80.8°F27.1°C 75.2°F24.0°C 83% 3.1 mph NE5.0 kmh NE 6.0 mph9.7 kmh 29.89 in1012.2 mb 0.00 in0.0 mm 0.00 in0.0 mm 0.00 in0.0 mm
03:55 AM 80.6°F27.0°C 75.0°F23.9°C 83% 3.1 mph NE5.0 kmh NE 6.9 mph11.1 kmh 29.89 in1012.2 mb 0.00 in0.0 mm 0.00 in0.0 mm 0.00 in0.0 mm
04:00 AM 80.4°F26.9°C 74.8°F23.8°C 83% 5.4 mph NNE8.7 kmh NNE 6.9 mph11.1 kmh 29.89 in1012.2 mb 0.00 in0.0 mm 0.00 in0.0 mm 0.00 in0.0 mm
04:05 AM 80.4°F26.9°C 74.8°F23.8°C 83% 2.2 mph NNE3.5 kmh NNE 6.9 mph11.1 kmh 29.88 in1011.9 mb 0.00 in0.0 mm 0.00 in0.0 mm 0.00 in0.0 mm
04:10 AM 80.4°F26.9°C 74.8°F23.8°C 83% 3.1 mph NNE5.0 kmh NNE 6.9 mph11.1 kmh 29.89 in1012.2 mb 0.00 in0.0 mm 0.00 in0.0 mm 0.00 in0.0 mm
04:15 AM 80.4°F26.9°C 74.8°F23.8°C 83% 4.5 mph NNE7.2 kmh NNE 6.9 mph11.1 kmh 29.88 in1011.9 mb 0.00 in0.0 mm 0.00 in0.0 mm 0.00 in0.0 mm
04:20 AM 80.4°F26.9°C 74.8°F23.8°C 83% 3.1 mph NE5.0 kmh NE 7.6 mph12.2 kmh 29.88 in1011.9 mb 0.00 in0.0 mm 0.00 in0.0 mm 0.00 in0.0 mm
04:25 AM 80.2°F26.8°C 75.0°F23.9°C 84% 4.5 mph NE7.2 kmh NE 7.6 mph12.2 kmh 29.88 in1011.9 mb 0.00 in0.0 mm 0.00 in0.0 mm 0.00 in0.0 mm
04:30 AM 80.4°F26.9°C 75.2°F24.0°C 84% 3.8 mph NE6.1 kmh NE 6.9 mph11.1 kmh 29.88 in1011.9 mb 0.00 in0.0 mm 0.00 in0.0 mm 0.00 in0.0 mm
04:35 AM 80.2°F26.8°C 75.0°F23.9°C 84% 4.5 mph NE7.2 kmh NE 6.9 mph11.1 kmh 29.88 in1011.9 mb 0.00 in0.0 mm 0.00 in0.0 mm 0.00 in0.0 mm
04:40 AM 80.4°F26.9°C 75.2°F24.0°C 84% 3.8 mph NNE6.1 kmh NNE 6.9 mph11.1 kmh 29.88 in1011.9 mb 0.00 in0.0 mm 0.00 in0.0 mm 0.00 in0.0 mm
04:45 AM 80.2°F26.8°C 75.0°F23.9°C 84% 3.8 mph NE6.1 kmh NE 7.6 mph12.2 kmh 29.88 in1011.9 mb 0.00 in0.0 mm 0.00 in0.0 mm 0.00 in0.0 mm
04:50 AM 80.2°F26.8°C 75.0°F23.9°C 84% 2.2 mph NNE3.5 kmh NNE 7.6 mph12.2 kmh 29.87 in1011.5 mb 0.00 in0.0 mm 0.00 in0.0 mm 0.00 in0.0 mm
04:55 AM 80.2°F26.8°C 75.0°F23.9°C 84% 3.8 mph NNE6.1 kmh NNE 6.0 mph9.7 kmh 29.87 in1011.5 mb 0.00 in0.0 mm 0.00 in0.0 mm 0.00 in0.0 mm
05:00 AM 80.2°F26.8°C 75.4°F24.1°C 85% 3.8 mph NNE6.1 kmh NNE 6.9 mph11.1 kmh 29.87 in1011.5 mb 0.00 in0.0 mm 0.00 in0.0 mm 0.00 in0.0 mm
05:05 AM 80.2°F26.8°C 75.4°F24.1°C 85% 5.4 mph NE8.7 kmh NE 7.6 mph12.2 kmh 29.87 in1011.5 mb 0.00 in0.0 mm 0.00 in0.0 mm 0.00 in0.0 mm
05:10 AM 80.2°F26.8°C 75.4°F24.1°C 85% 5.4 mph NE8.7 kmh NE 8.3 mph13.4 kmh 29.87 in1011.5 mb 0.00 in0.0 mm 0.00 in0.0 mm 0.00 in0.0 mm
05:15 AM 80.4°F26.9°C 75.6°F24.2°C 85% 3.8 mph NE6.1 kmh NE 8.3 mph13.4 kmh 29.87 in1011.5 mb 0.00 in0.0 mm 0.00 in0.0 mm 0.00 in0.0 mm
05:20 AM 80.4°F26.9°C 75.6°F24.2°C 85% 4.5 mph NE7.2 kmh NE 8.3 mph13.4 kmh 29.87 in1011.5 mb 0.00 in0.0 mm 0.00 in0.0 mm 0.00 in0.0 mm
05:25 AM 80.4°F26.9°C 75.6°F24.2°C 85% 3.1 mph NE5.0 kmh NE 8.3 mph13.4 kmh 29.87 in1011.5 mb 0.00 in0.0 mm 0.00 in0.0 mm 0.00 in0.0 mm
05:30 AM 80.4°F26.9°C 75.6°F24.2°C 85% 1.6 mph NE2.6 kmh NE 8.3 mph13.4 kmh 29.88 in1011.9 mb 0.00 in0.0 mm 0.00 in0.0 mm 0.00 in0.0 mm
05:35 AM 80.4°F26.9°C 75.6°F24.2°C 85% 3.1 mph ENE5.0 kmh ENE 6.0 mph9.7 kmh 29.88 in1011.9 mb 0.00 in0.0 mm 0.00 in0.0 mm 0.00 in0.0 mm
05:40 AM 80.4°F26.9°C 75.6°F24.2°C 85% 3.1 mph NE5.0 kmh NE 6.9 mph11.1 kmh 29.88 in1011.9 mb 0.00 in0.0 mm 0.00 in0.0 mm 0.00 in0.0 mm
05:45 AM 80.4°F26.9°C 75.9°F24.4°C 86% 3.8 mph ENE6.1 kmh ENE 6.9 mph11.1 kmh 29.88 in1011.9 mb 0.00 in0.0 mm 0.00 in0.0 mm 0.00 in0.0 mm
05:50 AM 80.4°F26.9°C 75.9°F24.4°C 86% 2.2 mph E3.5 kmh E 6.9 mph11.1 kmh 29.88 in1011.9 mb 0.00 in0.0 mm 0.00 in0.0 mm 0.00 in0.0 mm
05:55 AM 80.2°F26.8°C 75.7°F24.3°C 86% 3.1 mph ENE5.0 kmh ENE 5.4 mph8.7 kmh 29.88 in1011.9 mb 0.00 in0.0 mm 0.00 in0.0 mm 0.00 in0.0 mm
06:00 AM 80.4°F26.9°C 75.9°F24.4°C 86% 2.2 mph NE3.5 kmh NE 5.4 mph8.7 kmh 29.87 in1011.5 mb 0.00 in0.0 mm 0.00 in0.0 mm 0.00 in0.0 mm
06:05 AM 80.4°F26.9°C 75.9°F24.4°C 86% 4.5 mph ENE7.2 kmh ENE 6.0 mph9.7 kmh 29.88 in1011.9 mb 0.00 in0.0 mm 0.00 in0.0 mm 0.00 in0.0 mm
06:10 AM 80.4°F26.9°C 75.9°F24.4°C 86% 3.1 mph ENE5.0 kmh ENE 6.0 mph9.7 kmh 29.88 in1011.9 mb 0.00 in0.0 mm 0.00 in0.0 mm 0.00 in0.0 mm
06:15 AM 80.4°F26.9°C 75.9°F24.4°C 86% 3.1 mph NE5.0 kmh NE 6.0 mph9.7 kmh 29.88 in1011.9 mb 0.00 in0.0 mm 0.00 in0.0 mm 0.00 in0.0 mm
06:20 AM 80.4°F26.9°C 75.9°F24.4°C 86% 3.1 mph NE5.0 kmh NE 6.0 mph9.7 kmh 29.88 in1011.9 mb 0.00 in0.0 mm 0.00 in0.0 mm 0.00 in0.0 mm
06:25 AM 80.4°F26.9°C 75.9°F24.4°C 86% 4.5 mph NE7.2 kmh NE 6.0 mph9.7 kmh 29.88 in1011.9 mb 0.00 in0.0 mm 0.00 in0.0 mm 0.00 in0.0 mm
06:30 AM 80.4°F26.9°C 75.9°F24.4°C 86% 3.8 mph NE6.1 kmh NE 6.9 mph11.1 kmh 29.88 in1011.9 mb 0.00 in0.0 mm 0.00 in0.0 mm 0.00 in0.0 mm
06:35 AM 80.2°F26.8°C 75.7°F24.3°C 86% 3.1 mph NE5.0 kmh NE 6.9 mph11.1 kmh 29.88 in1011.9 mb 0.00 in0.0 mm 0.00 in0.0 mm 0.00 in0.0 mm
06:40 AM 80.2°F26.8°C 76.1°F24.5°C 87% 3.8 mph NE6.1 kmh NE 6.9 mph11.1 kmh 29.88 in1011.9 mb 0.00 in0.0 mm 0.00 in0.0 mm 0.00 in0.0 mm
06:45 AM 80.4°F26.9°C 76.3°F24.6°C 87% 3.8 mph NE6.1 kmh NE 6.0 mph9.7 kmh 29.88 in1011.9 mb 0.00 in0.0 mm 0.00 in0.0 mm 0.00 in0.0 mm
06:50 AM 80.6°F27.0°C 76.4°F24.7°C 87% 4.5 mph NE7.2 kmh NE 6.9 mph11.1 kmh 29.88 in1011.9 mb 0.00 in0.0 mm 0.00 in0.0 mm 0.00 in0.0 mm
06:55 AM 80.4°F26.9°C 76.3°F24.6°C 87% 4.5 mph NE7.2 kmh NE 8.3 mph13.4 kmh 29.89 in1012.2 mb 0.00 in0.0 mm 0.00 in0.0 mm 0.00 in0.0 mm
07:00 AM 80.4°F26.9°C 76.3°F24.6°C 87% 4.5 mph ENE7.2 kmh ENE 8.3 mph13.4 kmh 29.88 in1011.9 mb 0.00 in0.0 mm 0.00 in0.0 mm 0.00 in0.0 mm
07:05 AM 80.6°F27.0°C 76.4°F24.7°C 87% 4.5 mph ENE7.2 kmh ENE 7.6 mph12.2 kmh 29.89 in1012.2 mb 0.00 in0.0 mm 0.00 in0.0 mm 0.00 in0.0 mm
07:10 AM 80.6°F27.0°C 76.4°F24.7°C 87% 3.8 mph NE6.1 kmh NE 7.6 mph12.2 kmh 29.89 in1012.2 mb 0.00 in0.0 mm 0.00 in0.0 mm 0.00 in0.0 mm
07:15 AM 80.6°F27.0°C 76.4°F24.7°C 87% 6.9 mph NE11.1 kmh NE 10.7 mph17.2 kmh 29.89 in1012.2 mb 0.00 in0.0 mm 0.00 in0.0 mm 0.00 in0.0 mm
07:20 AM 80.6°F27.0°C 76.4°F24.7°C 87% 5.4 mph NE8.7 kmh NE 10.7 mph17.2 kmh 29.89 in1012.2 mb 0.00 in0.0 mm 0.00 in0.0 mm 0.00 in0.0 mm
07:25 AM 80.6°F27.0°C 76.4°F24.7°C 87% 4.5 mph NE7.2 kmh NE 10.7 mph17.2 kmh 29.90 in1012.5 mb 0.00 in0.0 mm 0.00 in0.0 mm 0.00 in0.0 mm
07:30 AM 80.6°F27.0°C 76.8°F24.9°C 88% 5.4 mph NE8.7 kmh NE 9.2 mph14.8 kmh 29.90 in1012.5 mb 0.00 in0.0 mm 0.00 in0.0 mm 0.00 in0.0 mm
07:35 AM 80.6°F27.0°C 76.8°F24.9°C 88% 6.0 mph NE9.7 kmh NE 10.7 mph17.2 kmh 29.90 in1012.5 mb 0.00 in0.0 mm 0.00 in0.0 mm 0.00 in0.0 mm
07:40 AM 80.8°F27.1°C 77.0°F25.0°C 88% 5.4 mph NE8.7 kmh NE 10.7 mph17.2 kmh 29.90 in1012.5 mb 0.00 in0.0 mm 0.00 in0.0 mm 0.00 in0.0 mm
07:45 AM 81.0°F27.2°C 77.1°F25.1°C 88% 3.8 mph NE6.1 kmh NE 9.2 mph14.8 kmh 29.90 in1012.5 mb 0.00 in0.0 mm 0.00 in0.0 mm 0.00 in0.0 mm
07:50 AM 81.7°F27.6°C 77.5°F25.3°C 87% 5.4 mph NE8.7 kmh NE 9.2 mph14.8 kmh 29.90 in1012.5 mb 0.00 in0.0 mm 0.00 in0.0 mm 0.00 in0.0 mm
07:55 AM 82.2°F27.9°C 78.0°F25.6°C 87% 5.4 mph NE8.7 kmh NE 9.8 mph15.8 kmh 29.90 in1012.5 mb 0.00 in0.0 mm 0.00 in0.0 mm 0.00 in0.0 mm
08:00 AM 82.4°F28.0°C 77.9°F25.5°C 86% 6.0 mph NE9.7 kmh NE 9.8 mph15.8 kmh 29.91 in1012.9 mb 0.00 in0.0 mm 0.00 in0.0 mm 0.00 in0.0 mm
08:05 AM 82.9°F28.3°C 78.4°F25.8°C 86% 5.4 mph NE8.7 kmh NE 9.8 mph15.8 kmh 29.91 in1012.9 mb 0.00 in0.0 mm 0.00 in0.0 mm 0.00 in0.0 mm
08:10 AM 83.7°F28.7°C 78.7°F25.9°C 85% 4.5 mph NE7.2 kmh NE 9.8 mph15.8 kmh 29.91 in1012.9 mb 0.00 in0.0 mm 0.00 in0.0 mm 0.00 in0.0 mm
08:15 AM 84.0°F28.9°C 78.7°F25.9°C 84% 5.4 mph NE8.7 kmh NE 11.4 mph18.3 kmh 29.91 in1012.9 mb 0.00 in0.0 mm 0.00 in0.0 mm 0.00 in0.0 mm
08:20 AM 84.4°F29.1°C 79.1°F26.2°C 84% 6.0 mph NE9.7 kmh NE 11.4 mph18.3 kmh 29.91 in1012.9 mb 0.00 in0.0 mm 0.00 in0.0 mm 0.00 in0.0 mm
08:25 AM 85.1°F29.5°C 79.4°F26.3°C 83% 6.9 mph NE11.1 kmh NE 11.4 mph18.3 kmh 29.91 in1012.9 mb 0.00 in0.0 mm 0.00 in0.0 mm 0.00 in0.0 mm
08:30 AM 85.3°F29.6°C 79.2°F26.2°C 82% 8.3 mph NE13.4 kmh NE 11.4 mph18.3 kmh 29.91 in1012.9 mb 0.00 in0.0 mm 0.00 in0.0 mm 0.00 in0.0 mm
08:35 AM 85.5°F29.7°C 79.4°F26.3°C 82% 8.3 mph NE13.4 kmh NE 11.4 mph18.3 kmh 29.91 in1012.9 mb 0.00 in0.0 mm 0.00 in0.0 mm 0.00 in0.0 mm
08:40 AM 85.6°F29.8°C 79.6°F26.4°C 82% 5.4 mph NE8.7 kmh NE 11.4 mph18.3 kmh 29.91 in1012.9 mb 0.00 in0.0 mm 0.00 in0.0 mm 0.00 in0.0 mm
08:45 AM 86.0°F30.0°C 79.6°F26.4°C 81% 6.9 mph NE11.1 kmh NE 11.4 mph18.3 kmh 29.91 in1012.9 mb 0.00 in0.0 mm 0.00 in0.0 mm 0.00 in0.0 mm
08:50 AM 86.5°F30.3°C 80.1°F26.7°C 81% 6.0 mph NE9.7 kmh NE 11.4 mph18.3 kmh 29.91 in1012.9 mb 0.00 in0.0 mm 0.00 in0.0 mm 0.00 in0.0 mm
08:55 AM 87.1°F30.6°C 80.2°F26.8°C 80% 4.5 mph NE7.2 kmh NE 9.8 mph15.8 kmh 29.91 in1012.9 mb 0.00 in0.0 mm 0.00 in0.0 mm 0.00 in0.0 mm
09:00 AM 87.6°F30.9°C 80.4°F26.9°C 79% 5.4 mph NE8.7 kmh NE 8.3 mph13.4 kmh 29.91 in1012.9 mb 0.00 in0.0 mm 0.00 in0.0 mm 0.00 in0.0 mm
09:05 AM 87.6°F30.9°C 80.0°F26.7°C 78% 3.8 mph NE6.1 kmh NE 9.8 mph15.8 kmh 29.91 in1012.9 mb 0.00 in0.0 mm 0.00 in0.0 mm 0.00 in0.0 mm
09:10 AM 88.0°F31.1°C 80.3°F26.8°C 78% 6.9 mph NE11.1 kmh NE 11.4 mph18.3 kmh 29.91 in1012.9 mb 0.00 in0.0 mm 0.00 in0.0 mm 0.00 in0.0 mm
09:15 AM 87.8°F31.0°C 80.2°F26.8°C 78% 4.5 mph NE7.2 kmh NE 11.4 mph18.3 kmh 29.90 in1012.5 mb 0.00 in0.0 mm 0.00 in0.0 mm 0.00 in0.0 mm
09:20 AM 87.8°F31.0°C 80.2°F26.8°C 78% 6.0 mph NE9.7 kmh NE 10.7 mph17.2 kmh 29.91 in1012.9 mb 0.00 in0.0 mm 0.00 in0.0 mm 0.00 in0.0 mm
09:25 AM 87.8°F31.0°C 80.2°F26.8°C 78% 3.1 mph NE5.0 kmh NE 9.8 mph15.8 kmh 29.91 in1012.9 mb 0.00 in0.0 mm 0.00 in0.0 mm 0.00 in0.0 mm
09:30 AM 88.5°F31.4°C 80.9°F27.2°C 78% 6.9 mph NE11.1 kmh NE 9.8 mph15.8 kmh 29.90 in1012.5 mb 0.00 in0.0 mm 0.00 in0.0 mm 0.00 in0.0 mm
09:35 AM 89.4°F31.9°C 81.3°F27.4°C 77% 7.6 mph NNE12.2 kmh NNE 11.4 mph18.3 kmh 29.90 in1012.5 mb 0.00 in0.0 mm 0.00 in0.0 mm 0.00 in0.0 mm
09:40 AM 89.4°F31.9°C 80.9°F27.2°C 76% 6.9 mph NE11.1 kmh NE 11.4 mph18.3 kmh 29.90 in1012.5 mb 0.00 in0.0 mm 0.00 in0.0 mm 0.00 in0.0 mm
09:45 AM 90.3°F32.4°C 81.8°F27.7°C 76% 6.0 mph NE9.7 kmh NE 11.4 mph18.3 kmh 29.91 in1012.9 mb 0.00 in0.0 mm 0.00 in0.0 mm 0.00 in0.0 mm
09:50 AM 90.9°F32.7°C 81.5°F27.5°C 74% 8.3 mph NE13.4 kmh NE 11.4 mph18.3 kmh 29.90 in1012.5 mb 0.00 in0.0 mm 0.00 in0.0 mm 0.00 in0.0 mm
09:55 AM 91.6°F33.1°C 82.2°F27.9°C 74% 7.6 mph NE12.2 kmh NE 11.4 mph18.3 kmh 29.91 in1012.9 mb 0.00 in0.0 mm 0.00 in0.0 mm 0.00 in0.0 mm
10:00 AM 92.7°F33.7°C 82.4°F28.0°C 72% 7.6 mph NE12.2 kmh NE 11.4 mph18.3 kmh 29.90 in1012.5 mb 0.00 in0.0 mm 0.00 in0.0 mm 0.00 in0.0 mm
10:05 AM 92.8°F33.8°C 82.1°F27.8°C 71% 5.4 mph NNE8.7 kmh NNE 13.6 mph21.9 kmh 29.90 in1012.5 mb 0.00 in0.0 mm 0.00 in0.0 mm 0.00 in0.0 mm
10:10 AM 93.2°F34.0°C 82.5°F28.1°C 71% 9.8 mph NNE15.8 kmh NNE 13.6 mph21.9 kmh 29.90 in1012.5 mb 0.00 in0.0 mm 0.00 in0.0 mm 0.00 in0.0 mm
10:15 AM 94.3°F34.6°C 83.1°F28.4°C 70% 8.3 mph NE13.4 kmh NE 13.0 mph20.9 kmh 29.90 in1012.5 mb 0.00 in0.0 mm 0.00 in0.0 mm 0.00 in0.0 mm
10:20 AM 94.3°F34.6°C 82.6°F28.1°C 69% 6.9 mph NE11.1 kmh NE 13.0 mph20.9 kmh 29.90 in1012.5 mb 0.00 in0.0 mm 0.00 in0.0 mm 0.00 in0.0 mm
10:25 AM 94.8°F34.9°C 82.7°F28.2°C 68% 6.9 mph NE11.1 kmh NE 12.1 mph19.5 kmh 29.89 in1012.2 mb 0.00 in0.0 mm 0.00 in0.0 mm 0.00 in0.0 mm
10:30 AM 95.2°F35.1°C 82.6°F28.1°C 67% 7.6 mph NE12.2 kmh NE 14.5 mph23.3 kmh 29.89 in1012.2 mb 0.00 in0.0 mm 0.00 in0.0 mm 0.00 in0.0 mm
10:35 AM 95.5°F35.3°C 82.9°F28.3°C 67% 6.9 mph NE11.1 kmh NE 14.5 mph23.3 kmh 29.90 in1012.5 mb 0.00 in0.0 mm 0.00 in0.0 mm 0.00 in0.0 mm
10:40 AM 96.1°F35.6°C 83.0°F28.3°C 66% 8.3 mph NE13.4 kmh NE 15.2 mph24.5 kmh 29.91 in1012.9 mb 0.00 in0.0 mm 0.00 in0.0 mm 0.00 in0.0 mm
10:45 AM 96.3°F35.7°C 82.7°F28.2°C 65% 6.9 mph NE11.1 kmh NE 15.2 mph24.5 kmh 29.91 in1012.9 mb 0.00 in0.0 mm 0.00 in0.0 mm 0.00 in0.0 mm
10:50 AM 96.6°F35.9°C 82.5°F28.1°C 64% 10.7 mph ENE17.2 kmh ENE 13.6 mph21.9 kmh 29.91 in1012.9 mb 0.00 in0.0 mm 0.00 in0.0 mm 0.00 in0.0 mm
10:55 AM 96.4°F35.8°C 82.4°F28.0°C 64% 7.6 mph NE12.2 kmh NE 14.5 mph23.3 kmh 29.91 in1012.9 mb 0.00 in0.0 mm 0.00 in0.0 mm 0.00 in0.0 mm
11:00 AM 95.9°F35.5°C 81.9°F27.7°C 64% 9.8 mph NE15.8 kmh NE 14.5 mph23.3 kmh 29.91 in1012.9 mb 0.00 in0.0 mm 0.00 in0.0 mm 0.00 in0.0 mm
11:05 AM 96.1°F35.6°C 82.0°F27.8°C 64% 7.6 mph NE12.2 kmh NE 15.2 mph24.5 kmh 29.91 in1012.9 mb 0.00 in0.0 mm 0.00 in0.0 mm 0.00 in0.0 mm
11:10 AM 96.8°F36.0°C 82.7°F28.2°C 64% 6.9 mph NE11.1 kmh NE 15.2 mph24.5 kmh 29.91 in1012.9 mb 0.00 in0.0 mm 0.00 in0.0 mm 0.00 in0.0 mm
11:15 AM 97.3°F36.3°C 82.7°F28.2°C 63% 6.0 mph NE9.7 kmh NE 14.5 mph23.3 kmh 29.91 in1012.9 mb 0.00 in0.0 mm 0.00 in0.0 mm 0.00 in0.0 mm
11:20 AM 98.1°F36.7°C 82.9°F28.3°C 62% 9.8 mph NE15.8 kmh NE 13.0 mph20.9 kmh 29.91 in1012.9 mb 0.00 in0.0 mm 0.00 in0.0 mm 0.00 in0.0 mm
11:25 AM 98.2°F36.8°C 82.6°F28.1°C 61% 9.8 mph NE15.8 kmh NE 13.0 mph20.9 kmh 29.91 in1012.9 mb 0.00 in0.0 mm 0.00 in0.0 mm 0.00 in0.0 mm
11:30 AM 98.8°F37.1°C 83.1°F28.4°C 61% 7.6 mph NE12.2 kmh NE 15.2 mph24.5 kmh 29.91 in1012.9 mb 0.00 in0.0 mm 0.00 in0.0 mm 0.00 in0.0 mm
11:35 AM 99.0°F37.2°C 82.7°F28.2°C 60% 7.6 mph NE12.2 kmh NE 15.2 mph24.5 kmh 29.91 in1012.9 mb 0.00 in0.0 mm 0.00 in0.0 mm 0.00 in0.0 mm
11:40 AM 98.8°F37.1°C 82.6°F28.1°C 60% 4.5 mph NE7.2 kmh NE 13.6 mph21.9 kmh 29.91 in1012.9 mb 0.00 in0.0 mm 0.00 in0.0 mm 0.00 in0.0 mm
11:45 AM 99.1°F37.3°C 82.4°F28.0°C 59% 7.6 mph NE12.2 kmh NE 13.0 mph20.9 kmh 29.90 in1012.5 mb 0.00 in0.0 mm 0.00 in0.0 mm 0.00 in0.0 mm
11:50 AM 99.5°F37.5°C 82.7°F28.2°C 59% 9.8 mph ENE15.8 kmh ENE 13.0 mph20.9 kmh 29.90 in1012.5 mb 0.00 in0.0 mm 0.00 in0.0 mm 0.00 in0.0 mm
11:55 AM 99.7°F37.6°C 82.9°F28.3°C 59% 9.2 mph ENE14.8 kmh ENE 13.0 mph20.9 kmh 29.90 in1012.5 mb 0.00 in0.0 mm 0.00 in0.0 mm 0.00 in0.0 mm
12:00 PM 99.9°F37.7°C 82.5°F28.1°C 58% 6.9 mph NE11.1 kmh NE 15.9 mph25.6 kmh 29.90 in1012.5 mb 0.00 in0.0 mm 0.00 in0.0 mm 0.00 in0.0 mm
12:05 PM 100.2°F37.9°C 82.3°F27.9°C 57% 8.3 mph NE13.4 kmh NE 15.9 mph25.6 kmh 29.90 in1012.5 mb 0.00 in0.0 mm 0.00 in0.0 mm 0.00 in0.0 mm
12:10 PM 100.6°F38.1°C 82.7°F28.2°C 57% 8.3 mph NE13.4 kmh NE 17.4 mph28.0 kmh 29.90 in1012.5 mb 0.00 in0.0 mm 0.00 in0.0 mm 0.00 in0.0 mm
12:15 PM 100.6°F38.1°C 82.7°F28.2°C 57% 6.9 mph NE11.1 kmh NE 17.4 mph28.0 kmh 29.90 in1012.5 mb 0.00 in0.0 mm 0.00 in0.0 mm 0.00 in0.0 mm
12:20 PM 100.6°F38.1°C 82.7°F28.2°C 57% 9.8 mph NE15.8 kmh NE 14.5 mph23.3 kmh 29.89 in1012.2 mb 0.00 in0.0 mm 0.00 in0.0 mm 0.00 in0.0 mm
12:25 PM 100.4°F38.0°C 82.0°F27.8°C 56% 9.2 mph NE14.8 kmh NE 15.9 mph25.6 kmh 29.89 in1012.2 mb 0.00 in0.0 mm 0.00 in0.0 mm 0.00 in0.0 mm
12:30 PM 99.5°F37.5°C 81.7°F27.6°C 57% 9.8 mph NE15.8 kmh NE 15.9 mph25.6 kmh 29.89 in1012.2 mb 0.00 in0.0 mm 0.00 in0.0 mm 0.00 in0.0 mm
12:35 PM 98.8°F37.1°C 81.5°F27.5°C 58% 5.4 mph NE8.7 kmh NE 15.9 mph25.6 kmh 29.89 in1012.2 mb 0.00 in0.0 mm 0.00 in0.0 mm 0.00 in0.0 mm
12:40 PM 98.6°F37.0°C 81.4°F27.4°C 58% 9.2 mph NE14.8 kmh NE 15.2 mph24.5 kmh 29.89 in1012.2 mb 0.00 in0.0 mm 0.00 in0.0 mm 0.00 in0.0 mm
12:45 PM 98.8°F37.1°C 81.5°F27.5°C 58% 10.7 mph NE17.2 kmh NE 15.2 mph24.5 kmh 29.88 in1011.9 mb 0.00 in0.0 mm 0.00 in0.0 mm 0.00 in0.0 mm
12:50 PM 99.1°F37.3°C 81.9°F27.7°C 58% 6.9 mph NE11.1 kmh NE 13.6 mph21.9 kmh 29.89 in1012.2 mb 0.00 in0.0 mm 0.00 in0.0 mm 0.00 in0.0 mm
12:55 PM 100.0°F37.8°C 82.2°F27.9°C 57% 9.2 mph NE14.8 kmh NE 13.6 mph21.9 kmh 29.88 in1011.9 mb 0.00 in0.0 mm 0.00 in0.0 mm 0.00 in0.0 mm
01:00 PM 100.6°F38.1°C 82.1°F27.8°C 56% 6.9 mph NE11.1 kmh NE 13.6 mph21.9 kmh 29.88 in1011.9 mb 0.00 in0.0 mm 0.00 in0.0 mm 0.00 in0.0 mm
01:05 PM 100.4°F38.0°C 82.0°F27.8°C 56% 4.5 mph NE7.2 kmh NE 13.6 mph21.9 kmh 29.88 in1011.9 mb 0.00 in0.0 mm 0.00 in0.0 mm 0.00 in0.0 mm
01:10 PM 100.9°F38.3°C 82.5°F28.1°C 56% 9.2 mph NE14.8 kmh NE 13.0 mph20.9 kmh 29.88 in1011.9 mb 0.00 in0.0 mm 0.00 in0.0 mm 0.00 in0.0 mm
01:15 PM 100.8°F38.2°C 81.7°F27.6°C 55% 9.8 mph NE15.8 kmh NE 13.6 mph21.9 kmh 29.88 in1011.9 mb 0.00 in0.0 mm 0.00 in0.0 mm 0.00 in0.0 mm
01:20 PM 100.4°F38.0°C 81.4°F27.4°C 55% 6.9 mph ENE11.1 kmh ENE 15.2 mph24.5 kmh 29.87 in1011.5 mb 0.00 in0.0 mm 0.00 in0.0 mm 0.00 in0.0 mm
01:25 PM 100.0°F37.8°C 81.1°F27.3°C 55% 7.6 mph E12.2 kmh E 15.2 mph24.5 kmh 29.87 in1011.5 mb 0.00 in0.0 mm 0.00 in0.0 mm 0.00 in0.0 mm
01:30 PM 99.0°F37.2°C 80.6°F27.0°C 56% 9.2 mph ENE14.8 kmh ENE 13.6 mph21.9 kmh 29.87 in1011.5 mb 0.00 in0.0 mm 0.00 in0.0 mm 0.00 in0.0 mm
01:35 PM 98.1°F36.7°C 80.3°F26.8°C 57% 6.0 mph ENE9.7 kmh ENE 13.0 mph20.9 kmh 29.88 in1011.9 mb 0.00 in0.0 mm 0.00 in0.0 mm 0.00 in0.0 mm
01:40 PM 96.8°F36.0°C 79.7°F26.5°C 58% 9.2 mph E14.8 kmh E 15.2 mph24.5 kmh 29.88 in1011.9 mb 0.00 in0.0 mm 0.00 in0.0 mm 0.00 in0.0 mm
01:45 PM 95.7°F35.4°C 79.7°F26.5°C 60% 11.4 mph ENE18.3 kmh ENE 16.8 mph27.0 kmh 29.88 in1011.9 mb 0.00 in0.0 mm 0.00 in0.0 mm 0.00 in0.0 mm
01:50 PM 95.0°F35.0°C 79.5°F26.4°C 61% 14.5 mph ENE23.3 kmh ENE 22.1 mph35.6 kmh 29.88 in1011.9 mb 0.00 in0.0 mm 0.00 in0.0 mm 0.00 in0.0 mm
01:55 PM 93.7°F34.3°C 79.3°F26.3°C 63% 13.6 mph ENE21.9 kmh ENE 22.8 mph36.7 kmh 29.89 in1012.2 mb 0.00 in0.0 mm 0.00 in0.0 mm 0.00 in0.0 mm
02:00 PM 92.1°F33.4°C 78.7°F25.9°C 65% 10.7 mph E17.2 kmh E 22.8 mph36.7 kmh 29.88 in1011.9 mb 0.00 in0.0 mm 0.00 in0.0 mm 0.00 in0.0 mm
02:05 PM 90.5°F32.5°C 77.7°F25.4°C 66% 10.7 mph ENE17.2 kmh ENE 19.0 mph30.6 kmh 29.88 in1011.9 mb 0.01 in0.3 mm 0.12 in3.0 mm 0.01 in0.3 mm
02:10 PM 89.4°F31.9°C 78.0°F25.6°C 69% 9.8 mph NE15.8 kmh NE 17.4 mph28.0 kmh 29.90 in1012.5 mb 0.06 in1.5 mm 0.60 in15.2 mm 0.06 in1.5 mm
02:15 PM 88.5°F31.4°C 77.6°F25.3°C 70% 14.5 mph NE23.3 kmh NE 21.3 mph34.3 kmh 29.89 in1012.2 mb 0.12 in3.0 mm 0.72 in18.3 mm 0.12 in3.0 mm
02:20 PM 87.8°F31.0°C 77.3°F25.2°C 71% 10.7 mph NE17.2 kmh NE 21.3 mph34.3 kmh 29.89 in1012.2 mb 0.12 in3.0 mm 0.00 in0.0 mm 0.12 in3.0 mm
02:25 PM 87.1°F30.6°C 77.0°F25.0°C 72% 8.3 mph NE13.4 kmh NE 21.3 mph34.3 kmh 29.89 in1012.2 mb 0.13 in3.3 mm 0.12 in3.0 mm 0.13 in3.3 mm
02:30 PM 86.5°F30.3°C 76.9°F24.9°C 73% 6.9 mph NE11.1 kmh NE 15.2 mph24.5 kmh 29.89 in1012.2 mb 0.13 in3.3 mm 0.00 in0.0 mm 0.13 in3.3 mm
02:35 PM 86.4°F30.2°C 77.2°F25.1°C 74% 10.7 mph NE17.2 kmh NE 14.5 mph23.3 kmh 29.89 in1012.2 mb 0.13 in3.3 mm 0.00 in0.0 mm 0.13 in3.3 mm
02:40 PM 86.2°F30.1°C 77.0°F25.0°C 74% 11.4 mph NE18.3 kmh NE 16.8 mph27.0 kmh 29.88 in1011.9 mb 0.13 in3.3 mm 0.00 in0.0 mm 0.13 in3.3 mm
02:45 PM 86.4°F30.2°C 77.6°F25.3°C 75% 9.8 mph NE15.8 kmh NE 16.8 mph27.0 kmh 29.88 in1011.9 mb 0.13 in3.3 mm 0.00 in0.0 mm 0.13 in3.3 mm
02:50 PM 86.7°F30.4°C 77.9°F25.5°C 75% 9.2 mph ENE14.8 kmh ENE 15.9 mph25.6 kmh 29.88 in1011.9 mb 0.13 in3.3 mm 0.00 in0.0 mm 0.13 in3.3 mm
02:55 PM 86.7°F30.4°C 77.9°F25.5°C 75% 9.2 mph ENE14.8 kmh ENE 16.8 mph27.0 kmh 29.88 in1011.9 mb 0.13 in3.3 mm 0.00 in0.0 mm 0.13 in3.3 mm
03:00 PM 86.9°F30.5°C 78.1°F25.6°C 75% 7.6 mph NE12.2 kmh NE 16.8 mph27.0 kmh 29.88 in1011.9 mb 0.13 in3.3 mm 0.00 in0.0 mm 0.13 in3.3 mm
03:05 PM 87.4°F30.8°C 78.2°F25.7°C 74% 9.2 mph NE14.8 kmh NE 15.9 mph25.6 kmh 29.88 in1011.9 mb 0.11 in2.8 mm 0.00 in0.0 mm 0.13 in3.3 mm
03:10 PM 88.0°F31.1°C 78.7°F25.9°C 74% 9.8 mph NE15.8 kmh NE 17.4 mph28.0 kmh 29.88 in1011.9 mb 0.07 in1.8 mm 0.00 in0.0 mm 0.13 in3.3 mm
03:15 PM 88.7°F31.5°C 79.0°F26.1°C 73% 8.3 mph NE13.4 kmh NE 17.4 mph28.0 kmh 29.88 in1011.9 mb 0.01 in0.3 mm 0.00 in0.0 mm 0.13 in3.3 mm
03:20 PM 89.6°F32.0°C 79.5°F26.4°C 72% 8.3 mph NE13.4 kmh NE 15.2 mph24.5 kmh 29.88 in1011.9 mb 0.01 in0.3 mm 0.00 in0.0 mm 0.13 in3.3 mm
03:25 PM 90.3°F32.4°C 79.7°F26.5°C 71% 9.8 mph NE15.8 kmh NE 15.2 mph24.5 kmh 29.87 in1011.5 mb 0.00 in0.0 mm 0.00 in0.0 mm 0.13 in3.3 mm
03:30 PM 90.5°F32.5°C 79.5°F26.4°C 70% 10.7 mph NE17.2 kmh NE 15.9 mph25.6 kmh 29.87 in1011.5 mb 0.00 in0.0 mm 0.00 in0.0 mm 0.13 in3.3 mm
03:35 PM 90.3°F32.4°C 79.3°F26.3°C 70% 7.6 mph NE12.2 kmh NE 15.9 mph25.6 kmh 29.87 in1011.5 mb 0.00 in0.0 mm 0.00 in0.0 mm 0.13 in3.3 mm
03:40 PM 90.1°F32.3°C 79.1°F26.2°C 70% 10.7 mph NE17.2 kmh NE 15.2 mph24.5 kmh 29.87 in1011.5 mb 0.00 in0.0 mm 0.00 in0.0 mm 0.13 in3.3 mm
03:45 PM 90.1°F32.3°C 79.1°F26.2°C 70% 11.4 mph NE18.3 kmh NE 17.4 mph28.0 kmh 29.86 in1011.2 mb 0.00 in0.0 mm 0.00 in0.0 mm 0.13 in3.3 mm
03:50 PM 90.0°F32.2°C 78.5°F25.8°C 69% 8.3 mph NE13.4 kmh NE 17.4 mph28.0 kmh 29.86 in1011.2 mb 0.01 in0.3 mm 0.12 in3.0 mm 0.14 in3.6 mm
03:55 PM 90.0°F32.2°C 78.5°F25.8°C 69% 10.7 mph NE17.2 kmh NE 17.4 mph28.0 kmh 29.86 in1011.2 mb 0.01 in0.3 mm 0.00 in0.0 mm 0.14 in3.6 mm
04:00 PM 90.5°F32.5°C 79.0°F26.1°C 69% 7.6 mph NE12.2 kmh NE 17.4 mph28.0 kmh 29.86 in1011.2 mb 0.01 in0.3 mm 0.00 in0.0 mm 0.14 in3.6 mm
04:05 PM 91.4°F33.0°C 79.4°F26.3°C 68% 8.3 mph NE13.4 kmh NE 15.9 mph25.6 kmh 29.85 in1010.8 mb 0.01 in0.3 mm 0.00 in0.0 mm 0.14 in3.6 mm
04:10 PM 91.9°F33.3°C 79.5°F26.4°C 67% 11.4 mph NE18.3 kmh NE 16.8 mph27.0 kmh 29.84 in1010.5 mb 0.01 in0.3 mm 0.00 in0.0 mm 0.14 in3.6 mm
04:15 PM 92.1°F33.4°C 79.2°F26.2°C 66% 11.4 mph NE18.3 kmh NE 16.8 mph27.0 kmh 29.84 in1010.5 mb 0.01 in0.3 mm 0.00 in0.0 mm 0.14 in3.6 mm
04:20 PM 92.1°F33.4°C 79.2°F26.2°C 66% 12.1 mph NE19.5 kmh NE 16.8 mph27.0 kmh 29.83 in1010.2 mb 0.01 in0.3 mm 0.00 in0.0 mm 0.14 in3.6 mm
04:25 PM 92.7°F33.7°C 79.7°F26.5°C 66% 8.3 mph NE13.4 kmh NE 16.8 mph27.0 kmh 29.83 in1010.2 mb 0.01 in0.3 mm 0.00 in0.0 mm 0.14 in3.6 mm
04:30 PM 93.4°F34.1°C 79.9°F26.6°C 65% 10.7 mph NE17.2 kmh NE 15.2 mph24.5 kmh 29.83 in1010.2 mb 0.01 in0.3 mm 0.00 in0.0 mm 0.14 in3.6 mm
04:35 PM 94.1°F34.5°C 80.1°F26.7°C 64% 9.8 mph NE15.8 kmh NE 15.9 mph25.6 kmh 29.83 in1010.2 mb 0.01 in0.3 mm 0.00 in0.0 mm 0.14 in3.6 mm
04:40 PM 94.1°F34.5°C 80.1°F26.7°C 64% 8.3 mph NE13.4 kmh NE 15.9 mph25.6 kmh 29.83 in1010.2 mb 0.01 in0.3 mm 0.00 in0.0 mm 0.14 in3.6 mm
04:45 PM 94.3°F34.6°C 79.8°F26.6°C 63% 11.4 mph NE18.3 kmh NE 15.2 mph24.5 kmh 29.83 in1010.2 mb 0.01 in0.3 mm 0.00 in0.0 mm 0.14 in3.6 mm
04:50 PM 93.7°F34.3°C 79.3°F26.3°C 63% 7.6 mph NE12.2 kmh NE 15.9 mph25.6 kmh 29.82 in1009.8 mb 0.00 in0.0 mm 0.00 in0.0 mm 0.14 in3.6 mm
04:55 PM 93.4°F34.1°C 79.5°F26.4°C 64% 9.8 mph NE15.8 kmh NE 15.9 mph25.6 kmh 29.82 in1009.8 mb 0.00 in0.0 mm 0.00 in0.0 mm 0.14 in3.6 mm
05:00 PM 93.7°F34.3°C 79.8°F26.6°C 64% 9.8 mph NE15.8 kmh NE 15.2 mph24.5 kmh 29.82 in1009.8 mb 0.00 in0.0 mm 0.00 in0.0 mm 0.14 in3.6 mm
05:05 PM 93.7°F34.3°C 79.8°F26.6°C 64% 7.6 mph NE12.2 kmh NE 15.2 mph24.5 kmh 29.81 in1009.5 mb 0.00 in0.0 mm 0.00 in0.0 mm 0.14 in3.6 mm
05:10 PM 94.1°F34.5°C 80.1°F26.7°C 64% 13.6 mph NE21.9 kmh NE 19.7 mph31.7 kmh 29.81 in1009.5 mb 0.00 in0.0 mm 0.00 in0.0 mm 0.14 in3.6 mm
05:15 PM 94.1°F34.5°C 79.7°F26.5°C 63% 12.1 mph NE19.5 kmh NE 19.7 mph31.7 kmh 29.81 in1009.5 mb 0.00 in0.0 mm 0.00 in0.0 mm 0.14 in3.6 mm
05:20 PM 93.4°F34.1°C 79.0°F26.1°C 63% 8.3 mph NE13.4 kmh NE 19.7 mph31.7 kmh 29.81 in1009.5 mb 0.00 in0.0 mm 0.00 in0.0 mm 0.14 in3.6 mm
05:25 PM 92.5°F33.6°C 78.6°F25.9°C 64% 7.6 mph NE12.2 kmh NE 19.0 mph30.6 kmh 29.81 in1009.5 mb 0.00 in0.0 mm 0.00 in0.0 mm 0.14 in3.6 mm
05:30 PM 92.1°F33.4°C 78.3°F25.7°C 64% 7.6 mph NE12.2 kmh NE 19.0 mph30.6 kmh 29.81 in1009.5 mb 0.00 in0.0 mm 0.00 in0.0 mm 0.14 in3.6 mm
05:35 PM 92.5°F33.6°C 79.1°F26.2°C 65% 6.9 mph NE11.1 kmh NE 13.6 mph21.9 kmh 29.81 in1009.5 mb 0.00 in0.0 mm 0.00 in0.0 mm 0.14 in3.6 mm
05:40 PM 93.0°F33.9°C 79.1°F26.2°C 64% 9.2 mph NE14.8 kmh NE 17.4 mph28.0 kmh 29.81 in1009.5 mb 0.00 in0.0 mm 0.00 in0.0 mm 0.14 in3.6 mm
05:45 PM 93.0°F33.9°C 79.1°F26.2°C 64% 13.0 mph NE20.9 kmh NE 19.0 mph30.6 kmh 29.81 in1009.5 mb 0.00 in0.0 mm 0.00 in0.0 mm 0.14 in3.6 mm
05:50 PM 92.7°F33.7°C 78.3°F25.7°C 63% 9.8 mph NE15.8 kmh NE 19.0 mph30.6 kmh 29.81 in1009.5 mb 0.00 in0.0 mm 0.00 in0.0 mm 0.14 in3.6 mm
05:55 PM 92.5°F33.6°C 78.6°F25.9°C 64% 8.3 mph NE13.4 kmh NE 17.4 mph28.0 kmh 29.81 in1009.5 mb 0.00 in0.0 mm 0.00 in0.0 mm 0.14 in3.6 mm
06:00 PM 92.7°F33.7°C 78.8°F26.0°C 64% 11.4 mph NE18.3 kmh NE 16.8 mph27.0 kmh 29.81 in1009.5 mb 0.00 in0.0 mm 0.00 in0.0 mm 0.14 in3.6 mm
06:05 PM 92.7°F33.7°C 78.3°F25.7°C 63% 11.4 mph ENE18.3 kmh ENE 17.4 mph28.0 kmh 29.81 in1009.5 mb 0.00 in0.0 mm 0.00 in0.0 mm 0.14 in3.6 mm
06:10 PM 92.3°F33.5°C 78.0°F25.6°C 63% 9.2 mph ENE14.8 kmh ENE 17.4 mph28.0 kmh 29.82 in1009.8 mb 0.00 in0.0 mm 0.00 in0.0 mm 0.14 in3.6 mm
06:15 PM 92.1°F33.4°C 77.8°F25.4°C 63% 10.7 mph ENE17.2 kmh ENE 17.4 mph28.0 kmh 29.83 in1010.2 mb 0.00 in0.0 mm 0.00 in0.0 mm 0.14 in3.6 mm
06:20 PM 91.8°F33.2°C 77.9°F25.5°C 64% 6.9 mph ENE11.1 kmh ENE 17.4 mph28.0 kmh 29.82 in1009.8 mb 0.00 in0.0 mm 0.00 in0.0 mm 0.14 in3.6 mm
06:25 PM 91.4°F33.0°C 77.6°F25.3°C 64% 9.8 mph ENE15.8 kmh ENE 15.9 mph25.6 kmh 29.83 in1010.2 mb 0.00 in0.0 mm 0.00 in0.0 mm 0.14 in3.6 mm
06:30 PM 91.2°F32.9°C 77.9°F25.5°C 65% 10.7 mph ENE17.2 kmh ENE 17.4 mph28.0 kmh 29.83 in1010.2 mb 0.00 in0.0 mm 0.00 in0.0 mm 0.14 in3.6 mm
06:35 PM 91.2°F32.9°C 77.9°F25.5°C 65% 9.2 mph ENE14.8 kmh ENE 17.4 mph28.0 kmh 29.84 in1010.5 mb 0.00 in0.0 mm 0.00 in0.0 mm 0.14 in3.6 mm
06:40 PM 91.0°F32.8°C 77.7°F25.4°C 65% 7.6 mph E12.2 kmh E 15.9 mph25.6 kmh 29.84 in1010.5 mb 0.00 in0.0 mm 0.00 in0.0 mm 0.14 in3.6 mm
06:45 PM 90.9°F32.7°C 77.5°F25.3°C 65% 7.6 mph E12.2 kmh E 15.9 mph25.6 kmh 29.84 in1010.5 mb 0.00 in0.0 mm 0.00 in0.0 mm 0.14 in3.6 mm
06:50 PM 91.0°F32.8°C 77.7°F25.4°C 65% 9.8 mph E15.8 kmh E 16.8 mph27.0 kmh 29.84 in1010.5 mb 0.00 in0.0 mm 0.00 in0.0 mm 0.14 in3.6 mm
06:55 PM 90.9°F32.7°C 77.5°F25.3°C 65% 6.9 mph ENE11.1 kmh ENE 16.8 mph27.0 kmh 29.84 in1010.5 mb 0.00 in0.0 mm 0.00 in0.0 mm 0.14 in3.6 mm
07:00 PM 90.9°F32.7°C 78.0°F25.6°C 66% 9.2 mph E14.8 kmh E 13.6 mph21.9 kmh 29.84 in1010.5 mb 0.00 in0.0 mm 0.00 in0.0 mm 0.14 in3.6 mm
07:05 PM 90.3°F32.4°C 77.5°F25.3°C 66% 9.2 mph E14.8 kmh E 14.5 mph23.3 kmh 29.85 in1010.8 mb 0.00 in0.0 mm 0.00 in0.0 mm 0.14 in3.6 mm
07:10 PM 90.1°F32.3°C 77.3°F25.2°C 66% 5.4 mph E8.7 kmh E 14.5 mph23.3 kmh 29.85 in1010.8 mb 0.00 in0.0 mm 0.00 in0.0 mm 0.14 in3.6 mm
07:15 PM 89.8°F32.1°C 77.4°F25.2°C 67% 6.0 mph E9.7 kmh E 12.1 mph19.5 kmh 29.85 in1010.8 mb 0.00 in0.0 mm 0.00 in0.0 mm 0.14 in3.6 mm
07:20 PM 89.8°F32.1°C 77.4°F25.2°C 67% 8.3 mph E13.4 kmh E 11.4 mph18.3 kmh 29.85 in1010.8 mb 0.00 in0.0 mm 0.00 in0.0 mm 0.14 in3.6 mm
07:25 PM 89.4°F31.9°C 77.5°F25.3°C 68% 6.0 mph E9.7 kmh E 13.6 mph21.9 kmh 29.86 in1011.2 mb 0.00 in0.0 mm 0.00 in0.0 mm 0.14 in3.6 mm
07:30 PM 89.2°F31.8°C 77.4°F25.2°C 68% 6.9 mph E11.1 kmh E 13.6 mph21.9 kmh 29.86 in1011.2 mb 0.00 in0.0 mm 0.00 in0.0 mm 0.14 in3.6 mm
07:35 PM 88.9°F31.6°C 77.0°F25.0°C 68% 6.9 mph E11.1 kmh E 13.0 mph20.9 kmh 29.86 in1011.2 mb 0.00 in0.0 mm 0.00 in0.0 mm 0.14 in3.6 mm
07:40 PM 88.7°F31.5°C 77.3°F25.2°C 69% 9.2 mph E14.8 kmh E 13.0 mph20.9 kmh 29.86 in1011.2 mb 0.00 in0.0 mm 0.00 in0.0 mm 0.14 in3.6 mm
07:45 PM 88.5°F31.4°C 77.1°F25.1°C 69% 6.9 mph ESE11.1 kmh ESE 13.0 mph20.9 kmh 29.85 in1010.8 mb 0.00 in0.0 mm 0.00 in0.0 mm 0.14 in3.6 mm
07:50 PM 88.3°F31.3°C 77.4°F25.2°C 70% 6.0 mph SE9.7 kmh SE 13.0 mph20.9 kmh 29.86 in1011.2 mb 0.00 in0.0 mm 0.00 in0.0 mm 0.14 in3.6 mm
07:55 PM 88.2°F31.2°C 77.2°F25.1°C 70% 6.9 mph SE11.1 kmh SE 14.5 mph23.3 kmh 29.86 in1011.2 mb 0.00 in0.0 mm 0.00 in0.0 mm 0.14 in3.6 mm
08:00 PM 87.8°F31.0°C 76.9°F24.9°C 70% 8.3 mph SE13.4 kmh SE 14.5 mph23.3 kmh 29.86 in1011.2 mb 0.00 in0.0 mm 0.00 in0.0 mm 0.14 in3.6 mm
08:05 PM 87.4°F30.8°C 77.0°F25.0°C 71% 6.9 mph SE11.1 kmh SE 13.6 mph21.9 kmh 29.86 in1011.2 mb 0.00 in0.0 mm 0.00 in0.0 mm 0.14 in3.6 mm
08:10 PM 87.3°F30.7°C 76.8°F24.9°C 71% 6.9 mph ESE11.1 kmh ESE 13.6 mph21.9 kmh 29.85 in1010.8 mb 0.00 in0.0 mm 0.00 in0.0 mm 0.14 in3.6 mm
08:15 PM 86.9°F30.5°C 76.4°F24.7°C 71% 10.7 mph ESE17.2 kmh ESE 13.6 mph21.9 kmh 29.86 in1011.2 mb 0.00 in0.0 mm 0.00 in0.0 mm 0.14 in3.6 mm
08:20 PM 86.7°F30.4°C 76.7°F24.8°C 72% 8.3 mph E13.4 kmh E 13.6 mph21.9 kmh 29.86 in1011.2 mb 0.00 in0.0 mm 0.00 in0.0 mm 0.14 in3.6 mm
08:25 PM 86.5°F30.3°C 76.5°F24.7°C 72% 8.3 mph E13.4 kmh E 13.6 mph21.9 kmh 29.86 in1011.2 mb 0.00 in0.0 mm 0.00 in0.0 mm 0.14 in3.6 mm
08:30 PM 86.4°F30.2°C 76.3°F24.6°C 72% 4.5 mph E7.2 kmh E 12.1 mph19.5 kmh 29.86 in1011.2 mb 0.00 in0.0 mm 0.00 in0.0 mm 0.14 in3.6 mm
08:35 PM 86.2°F30.1°C 76.2°F24.6°C 72% 6.9 mph E11.1 kmh E 12.1 mph19.5 kmh 29.86 in1011.2 mb 0.00 in0.0 mm 0.00 in0.0 mm 0.14 in3.6 mm
08:40 PM 86.2°F30.1°C 76.2°F24.6°C 72% 5.4 mph E8.7 kmh E 11.4 mph18.3 kmh 29.86 in1011.2 mb 0.00 in0.0 mm 0.00 in0.0 mm 0.14 in3.6 mm
08:45 PM 86.0°F30.0°C 76.0°F24.4°C 72% 9.2 mph E14.8 kmh E 13.0 mph20.9 kmh 29.86 in1011.2 mb 0.00 in0.0 mm 0.00 in0.0 mm 0.14 in3.6 mm
08:50 PM 85.8°F29.9°C 76.2°F24.6°C 73% 8.3 mph E13.4 kmh E 13.6 mph21.9 kmh 29.86 in1011.2 mb 0.00 in0.0 mm 0.00 in0.0 mm 0.14 in3.6 mm
08:55 PM 85.6°F29.8°C 76.1°F24.5°C 73% 6.0 mph E9.7 kmh E 13.6 mph21.9 kmh 29.86 in1011.2 mb 0.00 in0.0 mm 0.00 in0.0 mm 0.14 in3.6 mm
09:00 PM 85.5°F29.7°C 75.9°F24.4°C 73% 6.0 mph E9.7 kmh E 13.0 mph20.9 kmh 29.86 in1011.2 mb 0.00 in0.0 mm 0.00 in0.0 mm 0.14 in3.6 mm
09:05 PM 85.3°F29.6°C 75.7°F24.3°C 73% 6.9 mph E11.1 kmh E 13.0 mph20.9 kmh 29.85 in1010.8 mb 0.00 in0.0 mm 0.00 in0.0 mm 0.14 in3.6 mm
09:10 PM 85.1°F29.5°C 75.5°F24.2°C 73% 6.9 mph E11.1 kmh E 11.4 mph18.3 kmh 29.86 in1011.2 mb 0.00 in0.0 mm 0.00 in0.0 mm 0.14 in3.6 mm
09:15 PM 85.3°F29.6°C 75.7°F24.3°C 73% 5.4 mph E8.7 kmh E 11.4 mph18.3 kmh 29.86 in1011.2 mb 0.00 in0.0 mm 0.00 in0.0 mm 0.14 in3.6 mm
09:20 PM 84.9°F29.4°C 75.4°F24.1°C 73% 3.8 mph E6.1 kmh E 11.4 mph18.3 kmh 29.86 in1011.2 mb 0.00 in0.0 mm 0.00 in0.0 mm 0.14 in3.6 mm
09:25 PM 84.9°F29.4°C 75.4°F24.1°C 73% 6.0 mph E9.7 kmh E 9.2 mph14.8 kmh 29.86 in1011.2 mb 0.00 in0.0 mm 0.00 in0.0 mm 0.14 in3.6 mm
09:30 PM 84.7°F29.3°C 75.2°F24.0°C 73% 3.8 mph ENE6.1 kmh ENE 9.8 mph15.8 kmh 29.85 in1010.8 mb 0.00 in0.0 mm 0.00 in0.0 mm 0.14 in3.6 mm
09:35 PM 84.9°F29.4°C 75.4°F24.1°C 73% 4.5 mph NE7.2 kmh NE 10.7 mph17.2 kmh 29.85 in1010.8 mb 0.00 in0.0 mm 0.00 in0.0 mm 0.14 in3.6 mm
09:40 PM 84.7°F29.3°C 75.2°F24.0°C 73% 8.3 mph ENE13.4 kmh ENE 12.1 mph19.5 kmh 29.85 in1010.8 mb 0.00 in0.0 mm 0.00 in0.0 mm 0.14 in3.6 mm
09:45 PM 84.7°F29.3°C 75.2°F24.0°C 73% 6.9 mph NE11.1 kmh NE 12.1 mph19.5 kmh 29.86 in1011.2 mb 0.00 in0.0 mm 0.00 in0.0 mm 0.14 in3.6 mm
09:50 PM 84.6°F29.2°C 75.0°F23.9°C 73% 4.5 mph NE7.2 kmh NE 12.1 mph19.5 kmh 29.86 in1011.2 mb 0.00 in0.0 mm 0.00 in0.0 mm 0.14 in3.6 mm
09:55 PM 84.6°F29.2°C 75.0°F23.9°C 73% 4.5 mph NE7.2 kmh NE 13.0 mph20.9 kmh 29.86 in1011.2 mb 0.00 in0.0 mm 0.00 in0.0 mm 0.14 in3.6 mm
10:00 PM 84.4°F29.1°C 75.3°F24.1°C 74% 9.2 mph NE14.8 kmh NE 15.2 mph24.5 kmh 29.86 in1011.2 mb 0.00 in0.0 mm 0.00 in0.0 mm 0.14 in3.6 mm
10:05 PM 84.4°F29.1°C 75.3°F24.1°C 74% 6.0 mph NE9.7 kmh NE 15.2 mph24.5 kmh 29.86 in1011.2 mb 0.00 in0.0 mm 0.00 in0.0 mm 0.14 in3.6 mm
10:10 PM 84.4°F29.1°C 74.8°F23.8°C 73% 8.3 mph NE13.4 kmh NE 15.2 mph24.5 kmh 29.86 in1011.2 mb 0.00 in0.0 mm 0.00 in0.0 mm 0.14 in3.6 mm
10:15 PM 84.4°F29.1°C 75.3°F24.1°C 74% 8.3 mph NE13.4 kmh NE 13.0 mph20.9 kmh 29.86 in1011.2 mb 0.00 in0.0 mm 0.00 in0.0 mm 0.14 in3.6 mm
10:20 PM 84.2°F29.0°C 74.7°F23.7°C 73% 9.2 mph NE14.8 kmh NE 13.0 mph20.9 kmh 29.86 in1011.2 mb 0.00 in0.0 mm 0.00 in0.0 mm 0.14 in3.6 mm
10:25 PM 84.2°F29.0°C 74.7°F23.7°C 73% 9.2 mph NE14.8 kmh NE 17.4 mph28.0 kmh 29.86 in1011.2 mb 0.00 in0.0 mm 0.00 in0.0 mm 0.14 in3.6 mm
10:30 PM 84.2°F29.0°C 74.7°F23.7°C 73% 9.2 mph NE14.8 kmh NE 17.4 mph28.0 kmh 29.86 in1011.2 mb 0.00 in0.0 mm 0.00 in0.0 mm 0.14 in3.6 mm
10:35 PM 84.2°F29.0°C 74.7°F23.7°C 73% 8.3 mph NE13.4 kmh NE 15.9 mph25.6 kmh 29.86 in1011.2 mb 0.00 in0.0 mm 0.00 in0.0 mm 0.14 in3.6 mm
10:40 PM 84.2°F29.0°C 74.7°F23.7°C 73% 7.6 mph NE12.2 kmh NE 15.9 mph25.6 kmh 29.86 in1011.2 mb 0.00 in0.0 mm 0.00 in0.0 mm 0.14 in3.6 mm
10:45 PM 84.0°F28.9°C 74.5°F23.6°C 73% 11.4 mph NE18.3 kmh NE 15.9 mph25.6 kmh 29.86 in1011.2 mb 0.00 in0.0 mm 0.00 in0.0 mm 0.14 in3.6 mm
10:50 PM 83.8°F28.8°C 74.3°F23.5°C 73% 9.2 mph NE14.8 kmh NE 18.3 mph29.5 kmh 29.86 in1011.2 mb 0.00 in0.0 mm 0.00 in0.0 mm 0.14 in3.6 mm
10:55 PM 83.8°F28.8°C 74.3°F23.5°C 73% 9.2 mph NE14.8 kmh NE 19.7 mph31.7 kmh 29.86 in1011.2 mb 0.00 in0.0 mm 0.00 in0.0 mm 0.14 in3.6 mm
11:00 PM 83.8°F28.8°C 74.3°F23.5°C 73% 14.5 mph NE23.3 kmh NE 22.8 mph36.7 kmh 29.86 in1011.2 mb 0.00 in0.0 mm 0.00 in0.0 mm 0.14 in3.6 mm
11:05 PM 83.7°F28.7°C 74.1°F23.4°C 73% 13.0 mph NE20.9 kmh NE 22.8 mph36.7 kmh 29.86 in1011.2 mb 0.00 in0.0 mm 0.00 in0.0 mm 0.14 in3.6 mm
11:10 PM 83.5°F28.6°C 74.0°F23.3°C 73% 11.4 mph NE18.3 kmh NE 20.6 mph33.2 kmh 29.86 in1011.2 mb 0.00 in0.0 mm 0.00 in0.0 mm 0.14 in3.6 mm
11:15 PM 83.5°F28.6°C 74.0°F23.3°C 73% 11.4 mph NE18.3 kmh NE 20.6 mph33.2 kmh 29.86 in1011.2 mb 0.00 in0.0 mm 0.00 in0.0 mm 0.14 in3.6 mm
11:20 PM 83.5°F28.6°C 74.0°F23.3°C 73% 13.0 mph NE20.9 kmh NE 21.3 mph34.3 kmh 29.86 in1011.2 mb 0.00 in0.0 mm 0.00 in0.0 mm 0.14 in3.6 mm
11:25 PM 83.3°F28.5°C 73.8°F23.2°C 73% 8.3 mph NE13.4 kmh NE 21.3 mph34.3 kmh 29.86 in1011.2 mb 0.00 in0.0 mm 0.00 in0.0 mm 0.14 in3.6 mm
11:30 PM 83.3°F28.5°C 73.8°F23.2°C 73% 9.2 mph NE14.8 kmh NE 19.7 mph31.7 kmh 29.86 in1011.2 mb 0.00 in0.0 mm 0.00 in0.0 mm 0.14 in3.6 mm
11:35 PM 83.1°F28.4°C 73.6°F23.1°C 73% 9.8 mph NE15.8 kmh NE 20.6 mph33.2 kmh 29.86 in1011.2 mb 0.00 in0.0 mm 0.00 in0.0 mm 0.14 in3.6 mm
11:40 PM 83.1°F28.4°C 74.0°F23.3°C 74% 11.4 mph NE18.3 kmh NE 21.3 mph34.3 kmh 29.86 in1011.2 mb 0.00 in0.0 mm 0.00 in0.0 mm 0.14 in3.6 mm
11:45 PM 82.9°F28.3°C 73.9°F23.3°C 74% 12.1 mph NE19.5 kmh NE 22.1 mph35.6 kmh 29.86 in1011.2 mb 0.00 in0.0 mm 0.00 in0.0 mm 0.14 in3.6 mm
11:50 PM 82.9°F28.3°C 73.9°F23.3°C 74% 13.0 mph NE20.9 kmh NE 22.1 mph35.6 kmh 29.86 in1011.2 mb 0.00 in0.0 mm 0.00 in0.0 mm 0.14 in3.6 mm
11:55 PM 82.9°F28.3°C 73.9°F23.3°C 74% 13.0 mph NE20.9 kmh NE 19.7 mph31.7 kmh 29.85 in1010.8 mb 0.00 in0.0 mm 0.00 in0.0 mm 0.14 in3.6 mm